createdAt,value
2023-05-03T00:01:01.379Z,93.60
2023-05-03T00:03:29.480Z,93.79
2023-05-03T00:05:57.416Z,93.55
2023-05-03T00:08:26.705Z,93.51
2023-05-03T00:11:01.021Z,93.32
2023-05-03T00:13:29.079Z,94.54
2023-05-03T00:15:56.997Z,94.66
2023-05-03T00:18:25.225Z,95.97
2023-05-03T00:20:55.121Z,95.56
2023-05-03T00:23:22.950Z,94.55
2023-05-03T00:25:54.768Z,94.88
2023-05-03T00:28:22.764Z,94.79
2023-05-03T00:30:50.940Z,95.32
2023-05-03T00:33:19.030Z,94.89
2023-05-03T00:35:47.048Z,95.44
2023-05-03T00:38:15.643Z,95.09
2023-05-03T00:40:43.508Z,95.80
2023-05-03T00:43:14.359Z,95.21
2023-05-03T00:45:42.608Z,95.56
2023-05-03T00:48:10.613Z,95.32
2023-05-03T00:50:38.804Z,96.88
2023-05-03T00:53:07.503Z,95.22
2023-05-03T00:55:37.277Z,94.55
2023-05-03T00:58:05.124Z,94.98
2023-05-03T01:00:34.569Z,94.88
2023-05-03T01:03:02.572Z,95.36
2023-05-03T01:05:40.044Z,95.48
2023-05-03T01:08:13.813Z,95.92
2023-05-03T01:10:49.665Z,95.86
2023-05-03T01:13:25.945Z,96.12
2023-05-03T01:16:07.258Z,96.89
2023-05-03T01:18:40.202Z,96.56
2023-05-03T01:21:09.503Z,96.63
2023-05-03T01:23:43.914Z,97.01
2023-05-03T01:26:22.779Z,97.53
2023-05-03T01:28:51.634Z,97.04
2023-05-03T01:31:24.827Z,97.04
2023-05-03T01:34:03.690Z,96.44
2023-05-03T01:36:33.715Z,97.27
2023-05-03T01:39:09.453Z,96.30
2023-05-03T01:41:41.572Z,96.76
2023-05-03T01:44:10.339Z,96.24
2023-05-03T01:46:43.565Z,96.18
2023-05-03T01:49:12.844Z,95.93
2023-05-03T01:51:40.932Z,96.33
2023-05-03T01:54:09.044Z,96.47
2023-05-03T01:56:39.385Z,96.67
2023-05-03T01:59:07.218Z,97.06
2023-05-03T02:01:35.151Z,97.28
2023-05-03T02:04:03.110Z,96.80
2023-05-03T02:06:31.611Z,96.21
2023-05-03T02:09:00.770Z,95.87
2023-05-03T02:11:28.661Z,95.86
2023-05-03T02:13:57.969Z,95.85
2023-05-03T02:16:26.263Z,96.57
2023-05-03T02:18:55.808Z,96.51
2023-05-03T02:21:23.815Z,96.19
2023-05-03T02:23:52.182Z,95.70
2023-05-03T02:26:20.129Z,95.77
2023-05-03T02:28:48.067Z,95.73
2023-05-03T02:31:17.353Z,96.15
2023-05-03T02:33:45.332Z,96.64
2023-05-03T02:36:13.166Z,96.11
2023-05-03T02:38:40.986Z,96.05
2023-05-03T02:41:08.932Z,96.56
2023-05-03T02:43:36.904Z,96.67
2023-05-03T02:46:05.471Z,96.38
2023-05-03T02:48:34.795Z,95.73
2023-05-03T02:51:03.336Z,96.09
2023-05-03T02:53:31.175Z,96.71
2023-05-03T02:56:03.160Z,97.21
2023-05-03T02:58:32.159Z,96.34
2023-05-03T03:01:02.641Z,97.06
2023-05-03T03:03:31.676Z,96.60
2023-05-03T03:06:01.195Z,97.22
2023-05-03T03:08:29.674Z,97.17
2023-05-03T03:11:01.448Z,96.87
2023-05-03T03:13:29.483Z,97.05
2023-05-03T03:15:57.384Z,97.26
2023-05-03T03:18:25.445Z,97.71
2023-05-03T03:20:53.493Z,97.64
2023-05-03T03:23:24.756Z,96.25
2023-05-03T03:25:53.064Z,95.97
2023-05-03T03:28:21.531Z,96.10
2023-05-03T03:30:50.121Z,96.94
2023-05-03T03:33:24.688Z,96.27
2023-05-03T03:35:55.840Z,96.31
2023-05-03T03:38:29.751Z,96.08
2023-05-03T03:41:03.579Z,95.73
2023-05-03T03:43:31.568Z,96.86
2023-05-03T03:46:00.738Z,97.85
2023-05-03T03:48:28.604Z,97.44
2023-05-03T03:50:57.903Z,97.27
2023-05-03T03:53:34.672Z,97.51
2023-05-03T03:56:02.515Z,96.82
2023-05-03T03:58:31.806Z,96.82
2023-05-03T04:01:00.740Z,97.54
2023-05-03T04:03:30.021Z,96.91
2023-05-03T04:05:58.574Z,97.69
2023-05-03T04:08:27.868Z,97.44
2023-05-03T04:10:57.304Z,98.11
2023-05-03T04:13:26.804Z,98.21
2023-05-03T04:15:57.198Z,96.90
2023-05-03T04:18:26.819Z,96.83
2023-05-03T04:20:57.288Z,96.54
2023-05-03T04:23:25.234Z,95.22
2023-05-03T04:25:53.523Z,93.08
2023-05-03T04:28:25.079Z,91.10
2023-05-03T04:30:53.349Z,88.34
2023-05-03T04:33:25.725Z,85.61
2023-05-03T04:35:55.314Z,86.02
2023-05-03T04:38:23.348Z,86.76
2023-05-03T04:40:51.436Z,86.72
2023-05-03T04:43:19.723Z,87.54
2023-05-03T04:45:53.060Z,83.00
2023-05-03T04:48:24.403Z,82.19
2023-05-03T04:50:53.168Z,82.74
2023-05-03T04:53:23.242Z,86.28
2023-05-03T04:56:11.528Z,89.55
2023-05-03T04:58:41.647Z,90.82
2023-05-03T05:01:11.772Z,91.70
2023-05-03T05:03:40.014Z,93.33
2023-05-03T05:06:13.014Z,93.65
2023-05-03T05:08:43.031Z,94.16
2023-05-03T05:11:14.603Z,93.88
2023-05-03T05:13:42.804Z,92.84
2023-05-03T05:16:12.220Z,91.54
2023-05-03T05:18:43.750Z,90.24
2023-05-03T05:21:12.561Z,89.75
2023-05-03T05:23:40.621Z,89.35
2023-05-03T05:26:08.852Z,89.18
2023-05-03T05:28:38.041Z,88.43
2023-05-03T05:31:06.066Z,88.76
2023-05-03T05:33:35.521Z,90.03
2023-05-03T05:36:05.197Z,92.65
2023-05-03T05:38:33.919Z,91.65
2023-05-03T05:41:02.243Z,90.29
2023-05-03T05:43:30.988Z,90.77
2023-05-03T05:45:59.127Z,94.51
2023-05-03T05:48:27.024Z,94.62
2023-05-03T05:50:56.230Z,93.62
2023-05-03T05:53:24.921Z,93.80
2023-05-03T05:55:58.885Z,93.61
2023-05-03T05:58:28.354Z,92.79
2023-05-03T06:01:00.219Z,94.29
2023-05-03T06:03:31.711Z,95.05
2023-05-03T06:06:02.378Z,93.77
2023-05-03T06:08:30.484Z,90.67
2023-05-03T06:10:58.441Z,90.37
2023-05-03T06:13:28.242Z,89.82
2023-05-03T06:15:56.769Z,87.34
2023-05-03T06:18:25.549Z,85.70
2023-05-03T06:20:53.377Z,85.78
2023-05-03T06:23:23.498Z,88.39
2023-05-03T06:25:53.417Z,85.79
2023-05-03T06:28:22.166Z,84.32
2023-05-03T06:30:52.854Z,84.51
2023-05-03T06:33:20.898Z,84.43
2023-05-03T06:35:52.127Z,86.47
2023-05-03T06:38:20.747Z,83.58
2023-05-03T06:40:50.444Z,82.42
2023-05-03T06:43:18.395Z,82.15
2023-05-03T06:46:01.365Z,81.88
2023-05-03T06:48:29.305Z,85.06
2023-05-03T06:50:57.667Z,83.78
2023-05-03T06:53:25.656Z,81.64
2023-05-03T06:55:54.963Z,79.42
2023-05-03T06:58:22.833Z,82.71
2023-05-03T07:00:53.828Z,80.45
2023-05-03T07:03:21.840Z,76.86
2023-05-03T07:05:49.853Z,76.04
2023-05-03T07:08:17.768Z,74.22
2023-05-03T07:10:45.573Z,74.15
2023-05-03T07:13:15.269Z,72.48
2023-05-03T07:15:44.122Z,71.55
2023-05-03T07:18:12.312Z,68.64
2023-05-03T07:20:40.267Z,67.96
2023-05-03T07:23:08.104Z,62.29
2023-05-03T07:25:36.300Z,61.00
2023-05-03T07:28:04.388Z,65.85
2023-05-03T07:30:33.526Z,62.33
2023-05-03T07:33:01.439Z,60.82
2023-05-03T07:35:29.454Z,62.41
2023-05-03T07:37:57.742Z,57.38
2023-05-03T07:40:28.675Z,61.68
2023-05-03T07:42:56.636Z,61.07
2023-05-03T07:45:24.760Z,58.80
2023-05-03T07:47:54.468Z,58.03
2023-05-03T07:50:22.553Z,56.50
2023-05-03T07:52:52.108Z,52.17
2023-05-03T07:55:21.174Z,57.31
2023-05-03T07:57:49.123Z,55.52
2023-05-03T08:00:17.888Z,55.35
2023-05-03T08:02:45.900Z,53.59
2023-05-03T08:05:16.390Z,54.33
2023-05-03T08:07:44.397Z,57.41
2023-05-03T08:10:12.911Z,55.97
2023-05-03T08:12:40.750Z,52.40
2023-05-03T08:15:09.666Z,51.38
2023-05-03T08:17:41.860Z,51.17
2023-05-03T08:20:11.769Z,52.29
2023-05-03T08:22:41.437Z,51.66
2023-05-03T08:25:10.232Z,50.40
2023-05-03T08:27:39.022Z,51.40
2023-05-03T08:30:08.627Z,50.64
2023-05-03T08:32:36.521Z,52.97
2023-05-03T08:35:07.013Z,50.67
2023-05-03T08:37:41.135Z,51.26
2023-05-03T08:40:11.902Z,51.10
2023-05-03T08:42:41.122Z,50.01
2023-05-03T08:45:11.427Z,50.81
2023-05-03T08:47:40.749Z,48.37
2023-05-03T08:50:10.798Z,49.50
2023-05-03T08:52:42.502Z,49.85
2023-05-03T08:55:11.798Z,51.92
2023-05-03T08:57:41.206Z,56.00
2023-05-03T09:00:12.833Z,53.65
2023-05-03T09:02:41.422Z,53.49
2023-05-03T09:05:35.104Z,53.38
2023-05-03T09:08:05.976Z,51.57
2023-05-03T09:10:35.116Z,49.19
2023-05-03T09:13:03.812Z,49.54
2023-05-03T09:15:32.444Z,51.56
2023-05-03T09:18:17.610Z,51.10
2023-05-03T09:20:52.006Z,49.98
2023-05-03T09:23:31.745Z,50.68
2023-05-03T09:26:00.257Z,50.70
2023-05-03T09:28:28.208Z,48.69
2023-05-03T09:31:06.657Z,52.47
2023-05-03T09:33:35.041Z,50.64
2023-05-03T09:36:04.313Z,55.30
2023-05-03T09:38:35.291Z,49.47
2023-05-03T09:41:06.118Z,51.49
2023-05-03T09:43:34.716Z,51.73
2023-05-03T09:46:10.880Z,51.65
2023-05-03T09:48:39.270Z,52.95
2023-05-03T09:51:08.151Z,50.88
2023-05-03T09:53:38.488Z,49.16
2023-05-03T09:56:08.990Z,49.38
2023-05-03T09:58:37.096Z,51.24
2023-05-03T10:01:05.160Z,49.31
2023-05-03T10:03:39.105Z,49.95
2023-05-03T10:06:12.606Z,49.35
2023-05-03T10:08:46.407Z,49.25
2023-05-03T10:11:18.340Z,51.77
2023-05-03T10:13:46.501Z,50.62
2023-05-03T10:16:18.875Z,48.41
2023-05-03T10:18:53.844Z,48.14
2023-05-03T10:21:32.377Z,49.77
2023-05-03T10:24:22.247Z,49.29
2023-05-03T10:26:52.230Z,49.87
2023-05-03T10:29:49.823Z,49.15
2023-05-03T10:32:34.427Z,48.59
2023-05-03T10:35:05.760Z,47.80
2023-05-03T10:37:36.159Z,50.06
2023-05-03T10:40:11.370Z,49.68
2023-05-03T10:42:40.337Z,48.63
2023-05-03T10:45:21.735Z,48.48
2023-05-03T10:48:20.479Z,48.53
2023-05-03T10:50:51.685Z,49.40
2023-05-03T10:53:37.087Z,49.03
2023-05-03T10:56:08.826Z,51.60
2023-05-03T10:58:38.310Z,48.07
2023-05-03T11:01:08.076Z,48.34
2023-05-03T11:03:45.405Z,48.60
2023-05-03T11:06:32.672Z,49.10
2023-05-03T11:09:00.879Z,47.84
2023-05-03T11:11:32.177Z,49.12
2023-05-03T11:14:00.326Z,48.97
2023-05-03T11:16:28.408Z,48.55
2023-05-03T11:18:57.065Z,48.54
2023-05-03T11:21:25.281Z,51.13
2023-05-03T11:23:53.295Z,47.09
2023-05-03T11:26:26.161Z,48.46
2023-05-03T11:28:56.065Z,49.34
2023-05-03T11:31:24.344Z,47.66
2023-05-03T11:33:52.272Z,49.11
2023-05-03T11:36:20.280Z,47.62
2023-05-03T11:38:48.373Z,46.69
2023-05-03T11:41:17.361Z,49.12
2023-05-03T11:43:46.698Z,47.36
2023-05-03T11:46:19.000Z,48.17
2023-05-03T11:48:47.236Z,48.10
2023-05-03T11:51:15.327Z,47.23
2023-05-03T11:53:43.886Z,49.00
2023-05-03T11:56:19.122Z,47.30
2023-05-03T11:58:57.072Z,46.64
2023-05-03T12:01:28.261Z,50.93
2023-05-03T12:03:58.169Z,49.52
2023-05-03T12:06:27.847Z,46.52
2023-05-03T12:08:56.487Z,47.16
2023-05-03T12:11:27.252Z,47.76
2023-05-03T12:14:00.495Z,47.53
2023-05-03T12:16:46.497Z,48.71
2023-05-03T12:19:25.274Z,48.03
2023-05-03T12:22:13.320Z,47.69
2023-05-03T12:24:41.855Z,47.82
2023-05-03T12:27:14.204Z,44.66
2023-05-03T12:29:42.435Z,44.53
2023-05-03T12:32:12.297Z,45.13
2023-05-03T12:34:41.468Z,45.80
2023-05-03T12:37:11.957Z,46.50
2023-05-03T12:39:40.743Z,44.59
2023-05-03T12:42:09.850Z,46.79
2023-05-03T12:44:42.838Z,44.97
2023-05-03T12:47:16.960Z,45.34
2023-05-03T12:49:57.971Z,48.69
2023-05-03T12:55:02.631Z,50.45
2023-05-03T12:57:36.709Z,46.59
2023-05-03T13:00:12.321Z,47.52
2023-05-03T13:05:26.970Z,47.29
2023-05-03T13:08:08.741Z,46.25
2023-05-03T13:10:38.579Z,46.56
2023-05-03T13:13:06.844Z,47.84
2023-05-03T13:15:36.650Z,47.52
2023-05-03T13:18:07.679Z,46.45
2023-05-03T13:20:37.305Z,46.84
2023-05-03T13:23:05.320Z,48.25
2023-05-03T13:25:33.299Z,45.68
2023-05-03T13:28:01.865Z,47.04
2023-05-03T13:30:30.212Z,47.27
2023-05-03T13:32:58.235Z,47.09
2023-05-03T13:35:27.549Z,45.48
2023-05-03T13:37:55.524Z,46.30
2023-05-03T13:40:24.700Z,44.18
2023-05-03T13:42:52.848Z,44.23
2023-05-03T13:45:20.902Z,44.90
2023-05-03T13:48:11.218Z,45.31
2023-05-03T13:50:38.150Z,45.75
2023-05-03T13:53:06.197Z,44.90
2023-05-03T13:55:34.057Z,45.35
2023-05-03T13:58:02.121Z,45.31
2023-05-03T14:00:32.107Z,46.02
2023-05-03T14:03:00.407Z,46.60
2023-05-03T14:05:28.289Z,45.34
2023-05-03T14:07:58.220Z,46.38
2023-05-03T14:10:26.062Z,44.66
2023-05-03T14:12:53.948Z,45.83
2023-05-03T14:15:21.955Z,43.83
2023-05-03T14:17:49.899Z,45.25
2023-05-03T14:20:18.280Z,44.88
2023-05-03T14:22:46.799Z,43.76
2023-05-03T14:25:16.255Z,44.87
2023-05-03T14:27:44.270Z,45.56
2023-05-03T14:30:13.090Z,44.15
2023-05-03T14:32:41.129Z,43.77
2023-05-03T14:35:09.872Z,42.70
2023-05-03T14:37:38.017Z,43.93
2023-05-03T14:40:08.006Z,44.77
2023-05-03T14:42:37.627Z,44.72
2023-05-03T14:45:07.492Z,43.17
2023-05-03T14:47:36.654Z,43.47
2023-05-03T14:50:05.184Z,44.33
2023-05-03T14:52:33.612Z,44.47
2023-05-03T14:55:02.032Z,43.02
2023-05-03T14:57:31.571Z,44.43
2023-05-03T15:00:01.985Z,43.74
2023-05-03T15:02:30.162Z,44.07
2023-05-03T15:04:58.159Z,42.43
2023-05-03T15:07:26.073Z,42.79
2023-05-03T15:09:54.095Z,44.11
2023-05-03T15:12:21.972Z,42.52
2023-05-03T15:14:49.876Z,42.27
2023-05-03T15:17:19.324Z,43.33
2023-05-03T15:19:47.757Z,43.58
2023-05-03T15:22:16.007Z,43.22
2023-05-03T15:24:44.163Z,43.81
2023-05-03T15:27:12.719Z,43.79
2023-05-03T15:29:41.376Z,42.51
2023-05-03T15:32:09.324Z,43.50
2023-05-03T15:34:39.548Z,42.63
2023-05-03T15:37:07.652Z,43.05
2023-05-03T15:39:35.759Z,43.26
2023-05-03T15:42:04.006Z,43.46
2023-05-03T15:44:32.066Z,44.19
2023-05-03T15:46:59.869Z,43.65
2023-05-03T15:49:27.874Z,44.38
2023-05-03T15:51:57.058Z,43.15
2023-05-03T15:54:24.959Z,43.24
2023-05-03T15:56:53.754Z,43.49
2023-05-03T15:59:21.629Z,42.86
2023-05-03T16:01:49.543Z,43.23
2023-05-03T16:04:17.745Z,43.93
2023-05-03T16:06:45.636Z,43.84
2023-05-03T16:09:16.046Z,43.78
2023-05-03T16:11:44.686Z,42.71
2023-05-03T16:14:12.934Z,42.42
2023-05-03T16:16:41.322Z,42.74
2023-05-03T16:19:09.326Z,42.69
2023-05-03T16:21:37.339Z,42.85
2023-05-03T16:24:05.823Z,42.43
2023-05-03T16:26:36.050Z,41.98
2023-05-03T16:29:03.746Z,42.71
2023-05-03T16:31:32.374Z,42.34
2023-05-03T16:34:00.576Z,41.20
2023-05-03T16:36:28.800Z,41.66
2023-05-03T16:38:57.002Z,41.24
2023-05-03T16:41:25.357Z,41.17
2023-05-03T16:43:55.906Z,41.63
2023-05-03T16:46:24.216Z,41.99
2023-05-03T16:48:52.442Z,41.21
2023-05-03T16:51:22.464Z,41.79
2023-05-03T16:53:50.567Z,41.87
2023-05-03T16:56:18.454Z,40.74
2023-05-03T16:58:47.700Z,40.67
2023-05-03T17:01:17.026Z,41.08
2023-05-03T17:03:51.208Z,40.27
2023-05-03T17:06:19.799Z,40.81
2023-05-03T17:08:47.771Z,40.66
2023-05-03T17:11:16.050Z,40.13
2023-05-03T17:13:44.523Z,41.38
2023-05-03T17:16:15.610Z,41.08
2023-05-03T17:18:45.848Z,40.09
2023-05-03T17:21:13.883Z,41.10
2023-05-03T17:23:42.004Z,40.99
2023-05-03T17:26:11.312Z,41.70
2023-05-03T17:28:39.767Z,41.87
2023-05-03T17:31:08.122Z,42.00
2023-05-03T17:33:36.504Z,42.10
2023-05-03T17:36:06.395Z,42.45
2023-05-03T17:38:35.760Z,42.40
2023-05-03T17:41:07.296Z,42.79
2023-05-03T17:43:35.658Z,41.85
2023-05-03T17:46:08.909Z,42.67
2023-05-03T17:48:37.945Z,41.96
2023-05-03T17:51:09.649Z,41.68
2023-05-03T17:53:37.534Z,41.76
2023-05-03T17:56:05.714Z,41.83
2023-05-03T17:58:33.665Z,42.29
2023-05-03T18:01:01.642Z,42.58
2023-05-03T18:03:29.708Z,42.52
2023-05-03T18:05:57.797Z,43.16
2023-05-03T18:08:27.078Z,43.24
2023-05-03T18:10:54.923Z,43.28
2023-05-03T18:13:22.919Z,43.77
2023-05-03T18:15:51.091Z,44.84
2023-05-03T18:18:18.984Z,44.81
2023-05-03T18:20:46.825Z,44.91
2023-05-03T18:23:14.722Z,45.03
2023-05-03T18:25:46.135Z,45.67
2023-05-03T18:28:14.097Z,45.75
2023-05-03T18:30:42.675Z,46.35
2023-05-03T18:33:10.781Z,46.65
2023-05-03T18:35:38.861Z,46.08
2023-05-03T18:38:06.858Z,46.50
2023-05-03T18:40:34.790Z,46.23
2023-05-03T18:43:04.178Z,48.43
2023-05-03T18:45:32.125Z,49.68
2023-05-03T18:48:00.672Z,50.81
2023-05-03T18:50:28.626Z,52.67
2023-05-03T18:52:56.446Z,54.04
2023-05-03T18:55:25.442Z,56.53
2023-05-03T18:57:53.281Z,58.69
2023-05-03T19:00:22.630Z,59.65
2023-05-03T19:02:50.618Z,61.06
2023-05-03T19:05:18.573Z,61.02
2023-05-03T19:07:47.954Z,62.31
2023-05-03T19:10:16.837Z,61.24
2023-05-03T19:12:44.912Z,63.40
2023-05-03T19:15:13.497Z,65.09
2023-05-03T19:17:43.392Z,64.31
2023-05-03T19:20:11.995Z,64.88
2023-05-03T19:22:39.967Z,65.63
2023-05-03T19:25:09.561Z,66.09
2023-05-03T19:27:37.508Z,66.93
2023-05-03T19:30:06.597Z,67.27
2023-05-03T19:32:39.018Z,67.72
2023-05-03T19:35:09.852Z,69.12
2023-05-03T19:37:37.692Z,69.08
2023-05-03T19:40:07.997Z,69.21
2023-05-03T19:42:35.752Z,69.30
2023-05-03T19:45:04.396Z,68.92
2023-05-03T19:47:32.984Z,68.46
2023-05-03T19:50:00.918Z,69.56
2023-05-03T19:52:30.210Z,70.83
2023-05-03T19:54:58.545Z,70.97
2023-05-03T19:57:26.487Z,72.13
2023-05-03T19:59:54.410Z,71.29
2023-05-03T20:02:24.831Z,71.45
2023-05-03T20:04:53.119Z,71.73
2023-05-03T20:07:21.014Z,72.48
2023-05-03T20:09:50.291Z,73.34
2023-05-03T20:12:18.166Z,73.68
2023-05-03T20:14:46.113Z,73.28
2023-05-03T20:17:14.351Z,74.34
2023-05-03T20:19:42.313Z,73.26
2023-05-03T20:22:10.470Z,73.84
2023-05-03T20:24:38.302Z,74.76
2023-05-03T20:27:07.643Z,75.97
2023-05-03T20:29:36.124Z,77.93
2023-05-03T20:32:04.110Z,78.15
2023-05-03T20:34:32.042Z,78.18
2023-05-03T20:37:00.065Z,78.54
2023-05-03T20:39:27.953Z,78.60
2023-05-03T20:41:55.939Z,78.23
2023-05-03T20:44:25.245Z,78.17
2023-05-03T20:46:53.191Z,78.59
2023-05-03T20:49:21.089Z,78.80
2023-05-03T20:51:49.953Z,78.92
2023-05-03T20:54:17.865Z,80.14
2023-05-03T20:56:45.734Z,80.65
2023-05-03T20:59:13.584Z,80.71
2023-05-03T21:01:42.791Z,80.79
2023-05-03T21:04:10.721Z,81.48
2023-05-03T21:06:38.630Z,81.40
2023-05-03T21:09:06.845Z,80.52
2023-05-03T21:11:34.821Z,80.45
2023-05-03T21:14:02.855Z,79.85
2023-05-03T21:16:31.221Z,80.09
2023-05-03T21:19:01.306Z,80.13
2023-05-03T21:21:30.060Z,80.80
2023-05-03T21:23:58.454Z,80.95
2023-05-03T21:26:26.393Z,80.29
2023-05-03T21:28:54.223Z,80.39
2023-05-03T21:31:22.250Z,81.26
2023-05-03T21:33:50.147Z,81.34
2023-05-03T21:36:19.396Z,81.65
2023-05-03T21:38:47.327Z,82.12
2023-05-03T21:41:15.219Z,82.72
2023-05-03T21:43:43.196Z,83.21
2023-05-03T21:46:11.102Z,83.53
2023-05-03T21:48:40.235Z,84.40
2023-05-03T21:51:08.570Z,84.94
2023-05-03T21:53:38.266Z,84.69
2023-05-03T21:56:06.684Z,83.86
2023-05-03T21:58:34.629Z,83.49
2023-05-03T22:01:02.404Z,82.87
2023-05-03T22:03:30.416Z,83.27
2023-05-03T22:05:58.478Z,84.18
2023-05-03T22:08:26.236Z,84.59
2023-05-03T22:10:56.355Z,85.75
2023-05-03T22:13:24.325Z,85.65
2023-05-03T22:15:52.225Z,85.43
2023-05-03T22:18:20.475Z,85.36
2023-05-03T22:20:48.308Z,85.21
2023-05-03T22:23:16.200Z,85.44
2023-05-03T22:25:44.290Z,85.79
2023-05-03T22:28:13.778Z,86.20
2023-05-03T22:30:41.750Z,85.63
2023-05-03T22:33:09.626Z,86.27
2023-05-03T22:35:37.766Z,86.36
2023-05-03T22:38:06.659Z,86.59
2023-05-03T22:40:34.600Z,86.82
2023-05-03T22:43:02.625Z,87.12
2023-05-03T22:45:31.849Z,86.64
2023-05-03T22:48:00.362Z,86.68
2023-05-03T22:50:28.242Z,87.85
2023-05-03T22:52:56.095Z,87.47
2023-05-03T22:55:23.953Z,87.78
2023-05-03T22:57:52.131Z,86.95
2023-05-03T23:00:21.643Z,87.48
2023-05-03T23:02:50.887Z,87.47
2023-05-03T23:05:18.863Z,87.78
2023-05-03T23:07:46.752Z,87.64
2023-05-03T23:10:14.532Z,87.42
2023-05-03T23:12:42.334Z,87.71
2023-05-03T23:15:11.309Z,88.13
2023-05-03T23:17:39.246Z,88.64
2023-05-03T23:20:10.115Z,88.45
2023-05-03T23:22:40.702Z,87.94
2023-05-03T23:25:09.661Z,87.82
2023-05-03T23:27:37.586Z,88.42
2023-05-03T23:30:07.283Z,88.41
2023-05-03T23:32:35.843Z,88.30
2023-05-03T23:35:04.426Z,88.64
2023-05-03T23:37:33.588Z,89.23
2023-05-03T23:40:01.589Z,89.40
2023-05-03T23:42:29.574Z,89.79
2023-05-03T23:44:57.385Z,89.61
2023-05-03T23:47:25.324Z,89.74
2023-05-03T23:49:53.259Z,89.51
2023-05-03T23:52:21.222Z,89.58
2023-05-03T23:54:50.358Z,89.71
2023-05-03T23:57:18.321Z,89.74
2023-05-03T23:59:46.141Z,90.07
